createdAt,value
2018-06-21T00:00:25.911Z,17.12
2018-06-21T00:01:25.885Z,17.12
2018-06-21T00:02:25.902Z,17.10
2018-06-21T00:03:25.843Z,17.09
2018-06-21T00:04:25.867Z,17.09
2018-06-21T00:05:25.788Z,17.06
2018-06-21T00:06:25.768Z,17.09
2018-06-21T00:07:25.740Z,17.03
2018-06-21T00:08:25.754Z,17.06
2018-06-21T00:09:25.748Z,16.97
2018-06-21T00:10:28.601Z,16.99
2018-06-21T00:11:25.669Z,17.02
2018-06-21T00:12:25.621Z,16.99
2018-06-21T00:13:25.651Z,16.99
2018-06-21T00:14:25.574Z,17.00
2018-06-21T00:15:27.509Z,17.05
2018-06-21T00:16:25.526Z,16.87
2018-06-21T00:17:26.107Z,16.99
2018-06-21T00:18:25.596Z,16.95
2018-06-21T00:19:26.107Z,16.91
2018-06-21T00:20:25.432Z,16.90
2018-06-21T00:21:25.402Z,16.99
2018-06-21T00:22:25.381Z,16.87
2018-06-21T00:23:25.686Z,16.94
2018-06-21T00:24:25.328Z,16.92
2018-06-21T00:25:26.113Z,16.87
2018-06-21T00:26:25.275Z,16.90
2018-06-21T00:27:25.251Z,16.85
2018-06-21T00:28:26.158Z,16.90
2018-06-21T00:29:25.378Z,16.90
2018-06-21T00:30:25.211Z,16.85
2018-06-21T00:31:25.154Z,16.88
2018-06-21T00:32:25.134Z,16.99
2018-06-21T00:33:25.105Z,16.92
2018-06-21T00:34:25.136Z,16.84
2018-06-21T00:35:25.616Z,16.88
2018-06-21T00:36:25.031Z,16.87
2018-06-21T00:37:25.022Z,16.82
2018-06-21T00:38:24.995Z,16.85
2018-06-21T00:39:25.165Z,16.84
2018-06-21T00:40:24.932Z,16.74
2018-06-21T00:41:24.914Z,16.81
2018-06-21T00:42:25.608Z,16.77
2018-06-21T00:43:24.860Z,16.76
2018-06-21T00:44:24.878Z,16.74
2018-06-21T00:45:25.173Z,16.90
2018-06-21T00:46:24.788Z,16.84
2018-06-21T00:47:24.759Z,16.82
2018-06-21T00:48:24.739Z,16.90
2018-06-21T00:49:24.750Z,16.85
2018-06-21T00:50:24.733Z,16.90
2018-06-21T00:51:25.617Z,16.88
2018-06-21T00:52:24.647Z,17.02
2018-06-21T00:53:24.612Z,16.87
2018-06-21T00:54:24.599Z,16.91
2018-06-21T00:55:24.626Z,16.97
2018-06-21T00:56:24.541Z,16.92
2018-06-21T00:57:24.519Z,17.02
2018-06-21T00:58:24.503Z,16.99
2018-06-21T00:59:24.466Z,16.87
2018-06-21T01:00:24.492Z,16.88
2018-06-21T01:01:24.467Z,16.84
2018-06-21T01:02:24.392Z,16.77
2018-06-21T01:03:25.116Z,16.76
2018-06-21T01:04:24.342Z,16.77
2018-06-21T01:05:24.329Z,16.74
2018-06-21T01:06:24.350Z,16.72
2018-06-21T01:07:24.273Z,16.73
2018-06-21T01:08:24.260Z,16.72
2018-06-21T01:09:24.219Z,16.76
2018-06-21T01:10:24.195Z,16.69
2018-06-21T01:11:24.231Z,16.66
2018-06-21T01:12:24.149Z,16.66
2018-06-21T01:13:24.192Z,16.69
2018-06-21T01:14:24.100Z,16.65
2018-06-21T01:15:24.110Z,16.65
2018-06-21T01:16:24.061Z,16.63
2018-06-21T01:17:24.167Z,16.72
2018-06-21T01:18:24.010Z,16.67
2018-06-21T01:19:24.020Z,16.67
2018-06-21T01:20:24.620Z,16.82
2018-06-21T01:21:23.972Z,16.74
2018-06-21T01:22:23.943Z,16.73
2018-06-21T01:23:23.874Z,16.72
2018-06-21T01:24:24.624Z,16.67
2018-06-21T01:25:23.858Z,16.74
2018-06-21T01:26:23.801Z,16.77
2018-06-21T01:27:24.172Z,16.73
2018-06-21T01:28:23.806Z,16.73
2018-06-21T01:29:24.614Z,16.73
2018-06-21T01:30:23.718Z,16.67
2018-06-21T01:31:23.674Z,16.69
2018-06-21T01:32:24.622Z,16.72
2018-06-21T01:33:23.673Z,16.65
2018-06-21T01:34:23.604Z,16.69
2018-06-21T01:35:23.619Z,16.62
2018-06-21T01:36:23.552Z,16.59
2018-06-21T01:37:23.528Z,16.51
2018-06-21T01:38:23.548Z,16.59
2018-06-21T01:39:24.120Z,16.65
2018-06-21T01:40:23.501Z,16.66
2018-06-21T01:41:23.432Z,16.66
2018-06-21T01:42:23.409Z,16.54
2018-06-21T01:43:23.675Z,16.55
2018-06-21T01:44:23.357Z,16.55
2018-06-21T01:45:23.374Z,16.52
2018-06-21T01:46:23.305Z,16.47
2018-06-21T01:47:23.298Z,16.51
2018-06-21T01:48:23.253Z,16.42
2018-06-21T01:49:23.280Z,16.47
2018-06-21T01:50:23.216Z,16.51
2018-06-21T01:51:23.188Z,16.44
2018-06-21T01:52:23.163Z,16.49
2018-06-21T01:53:23.171Z,16.48
2018-06-21T01:54:23.107Z,16.39
2018-06-21T01:55:23.082Z,16.44
2018-06-21T01:56:23.103Z,16.48
2018-06-21T01:57:23.624Z,16.44
2018-06-21T01:58:23.011Z,16.42
2018-06-21T01:59:22.989Z,16.45
2018-06-21T02:00:23.079Z,16.45
2018-06-21T02:01:23.626Z,16.44
2018-06-21T02:02:22.907Z,16.48
2018-06-21T02:03:22.885Z,16.45
2018-06-21T02:04:22.896Z,16.48
2018-06-21T02:05:23.681Z,16.47
2018-06-21T02:06:22.810Z,16.44
2018-06-21T02:07:22.785Z,16.52
2018-06-21T02:08:22.759Z,16.52
2018-06-21T02:09:23.626Z,16.49
2018-06-21T02:10:22.753Z,16.54
2018-06-21T02:11:22.688Z,16.55
2018-06-21T02:12:22.665Z,16.45
2018-06-21T02:13:22.641Z,16.51
2018-06-21T02:14:23.125Z,16.55
2018-06-21T02:15:22.631Z,16.55
2018-06-21T02:16:22.566Z,16.54
2018-06-21T02:17:23.132Z,16.57
2018-06-21T02:18:22.511Z,16.59
2018-06-21T02:19:22.488Z,16.67
2018-06-21T02:20:22.462Z,16.59
2018-06-21T02:21:22.486Z,16.65
2018-06-21T02:22:22.459Z,16.66
2018-06-21T02:23:23.130Z,16.67
2018-06-21T02:24:22.367Z,16.65
2018-06-21T02:25:22.401Z,16.63
2018-06-21T02:26:23.128Z,16.73
2018-06-21T02:27:22.289Z,16.67
2018-06-21T02:28:22.263Z,16.70
2018-06-21T02:29:23.128Z,16.67
2018-06-21T02:30:22.267Z,16.67
2018-06-21T02:31:22.190Z,16.66
2018-06-21T02:32:22.165Z,16.69
2018-06-21T02:33:23.629Z,16.67
2018-06-21T02:34:22.165Z,16.66
2018-06-21T02:35:22.116Z,16.66
2018-06-21T02:36:22.072Z,16.70
2018-06-21T02:37:22.047Z,16.69
2018-06-21T02:38:22.066Z,16.69
2018-06-21T02:39:22.035Z,16.70
2018-06-21T02:40:21.966Z,16.62
2018-06-21T02:41:22.188Z,16.67
2018-06-21T02:42:21.925Z,16.59
2018-06-21T02:43:21.893Z,16.57
2018-06-21T02:44:21.912Z,16.69
2018-06-21T02:45:21.844Z,16.67
2018-06-21T02:46:22.634Z,16.59
2018-06-21T02:47:21.814Z,16.69
2018-06-21T02:48:21.771Z,16.55
2018-06-21T02:49:21.780Z,16.67
2018-06-21T02:50:21.740Z,16.69
2018-06-21T02:51:22.633Z,16.66
2018-06-21T02:52:21.765Z,16.72
2018-06-21T02:53:21.650Z,16.66
2018-06-21T02:54:21.688Z,16.77
2018-06-21T02:55:21.639Z,16.77
2018-06-21T02:56:21.574Z,16.81
2018-06-21T02:57:21.590Z,16.70
2018-06-21T02:58:21.537Z,16.67
2018-06-21T02:59:22.142Z,16.66
2018-06-21T03:00:21.474Z,16.62
2018-06-21T03:01:21.454Z,16.66
2018-06-21T03:02:21.690Z,16.66
2018-06-21T03:03:21.402Z,16.54
2018-06-21T03:04:21.374Z,16.63
2018-06-21T03:05:21.349Z,16.62
2018-06-21T03:06:22.150Z,16.59
2018-06-21T03:07:21.343Z,16.57
2018-06-21T03:08:21.318Z,16.59
2018-06-21T03:09:22.137Z,16.57
2018-06-21T03:10:21.224Z,16.59
2018-06-21T03:11:21.204Z,16.57
2018-06-21T03:12:21.227Z,16.66
2018-06-21T03:13:22.151Z,16.67
2018-06-21T03:14:21.128Z,16.69
2018-06-21T03:15:21.669Z,16.70
2018-06-21T03:16:21.093Z,16.67
2018-06-21T03:17:21.105Z,16.69
2018-06-21T03:18:21.027Z,16.70
2018-06-21T03:19:21.638Z,16.63
2018-06-21T03:20:20.978Z,16.66
2018-06-21T03:21:20.952Z,16.69
2018-06-21T03:22:20.969Z,16.67
2018-06-21T03:23:21.643Z,16.69
2018-06-21T03:24:20.883Z,16.65
2018-06-21T03:25:20.908Z,16.66
2018-06-21T03:26:20.830Z,16.69
2018-06-21T03:27:21.641Z,16.73
2018-06-21T03:28:20.780Z,16.76
2018-06-21T03:29:20.760Z,16.62
2018-06-21T03:30:20.788Z,16.77
2018-06-21T03:31:21.205Z,16.73
2018-06-21T03:32:20.677Z,16.72
2018-06-21T03:33:20.655Z,16.76
2018-06-21T03:34:21.144Z,16.74
2018-06-21T03:35:20.624Z,16.91
2018-06-21T03:36:22.113Z,16.90
2018-06-21T03:37:20.560Z,16.90
2018-06-21T03:38:20.530Z,16.85
2018-06-21T03:39:20.555Z,16.84
2018-06-21T03:40:20.494Z,16.84
2018-06-21T03:41:20.458Z,16.90
2018-06-21T03:42:21.145Z,17.02
2018-06-21T03:43:22.156Z,16.90
2018-06-21T03:44:20.390Z,16.90
2018-06-21T03:45:20.359Z,16.97
2018-06-21T03:46:21.147Z,16.90
2018-06-21T03:47:21.151Z,16.88
2018-06-21T03:48:20.322Z,16.92
2018-06-21T03:49:20.262Z,17.05
2018-06-21T03:50:20.247Z,17.02
2018-06-21T03:51:20.278Z,17.07
2018-06-21T03:52:20.213Z,17.10
2018-06-21T03:53:20.162Z,17.06
2018-06-21T03:54:20.139Z,17.15
2018-06-21T03:55:20.653Z,17.21
2018-06-21T03:56:20.139Z,17.27
2018-06-21T03:57:20.070Z,17.36
2018-06-21T03:58:20.048Z,17.35
2018-06-21T03:59:20.653Z,17.36
2018-06-21T04:00:20.037Z,17.38
2018-06-21T04:01:19.976Z,17.42
2018-06-21T04:02:19.945Z,17.43
2018-06-21T04:03:19.927Z,17.54
2018-06-21T04:04:19.942Z,17.52
2018-06-21T04:05:19.881Z,17.52
2018-06-21T04:06:20.214Z,17.63
2018-06-21T04:07:19.824Z,17.49
2018-06-21T04:08:19.828Z,17.60
2018-06-21T04:09:20.651Z,17.60
2018-06-21T04:10:19.755Z,17.69
2018-06-21T04:11:19.774Z,17.84
2018-06-21T04:12:19.706Z,17.77
2018-06-21T04:13:19.687Z,17.83
2018-06-21T04:14:20.653Z,17.92
2018-06-21T04:15:19.712Z,17.87
2018-06-21T04:16:19.605Z,17.84
2018-06-21T04:17:20.156Z,17.98
2018-06-21T04:18:19.576Z,17.98
2018-06-21T04:19:19.536Z,18.10
2018-06-21T04:20:20.221Z,18.19
2018-06-21T04:21:19.493Z,18.21
2018-06-21T04:22:20.163Z,18.32
2018-06-21T04:23:19.448Z,18.29
2018-06-21T04:24:20.156Z,18.27
2018-06-21T04:25:19.472Z,18.39
2018-06-21T04:26:19.379Z,18.38
2018-06-21T04:27:20.154Z,18.50
2018-06-21T04:28:19.323Z,18.56
2018-06-21T04:29:19.305Z,18.61
2018-06-21T04:30:19.313Z,18.72
2018-06-21T04:31:19.258Z,18.66
2018-06-21T04:32:20.235Z,18.76
2018-06-21T04:33:19.213Z,18.75
2018-06-21T04:34:20.161Z,18.76
2018-06-21T04:35:19.154Z,18.72
2018-06-21T04:36:19.657Z,18.76
2018-06-21T04:37:19.156Z,18.81
2018-06-21T04:38:19.659Z,18.87
2018-06-21T04:39:19.094Z,18.93
2018-06-21T04:40:19.656Z,18.84
2018-06-21T04:41:19.030Z,18.96
2018-06-21T04:42:19.211Z,19.00
2018-06-21T04:43:19.032Z,19.12
2018-06-21T04:44:19.660Z,19.00
2018-06-21T04:45:18.924Z,19.12
2018-06-21T04:46:18.918Z,19.15
2018-06-21T04:47:19.657Z,19.19
2018-06-21T04:48:18.901Z,19.23
2018-06-21T04:49:19.661Z,19.30
2018-06-21T04:50:18.810Z,19.35
2018-06-21T04:51:19.659Z,19.42
2018-06-21T04:52:18.760Z,19.52
2018-06-21T04:53:19.215Z,19.49
2018-06-21T04:54:18.758Z,19.61
2018-06-21T04:55:18.694Z,19.67
2018-06-21T04:56:19.660Z,19.71
2018-06-21T04:57:18.648Z,19.82
2018-06-21T04:58:19.162Z,19.87
2018-06-21T04:59:18.643Z,19.98
2018-06-21T05:00:18.591Z,20.32
2018-06-21T05:01:18.562Z,20.83
2018-06-21T05:02:18.540Z,21.38
2018-06-21T05:03:18.511Z,21.80
2018-06-21T05:04:18.731Z,22.26
2018-06-21T05:05:18.475Z,22.59
2018-06-21T05:06:18.487Z,22.85
2018-06-21T05:07:18.430Z,22.94
2018-06-21T05:08:19.174Z,22.89
2018-06-21T05:09:18.437Z,23.10
2018-06-21T05:10:18.372Z,23.28
2018-06-21T05:11:19.170Z,23.44
2018-06-21T05:12:18.326Z,23.24
2018-06-21T05:13:18.317Z,23.32
2018-06-21T05:14:18.744Z,23.18
2018-06-21T05:15:18.281Z,23.19
2018-06-21T05:16:18.293Z,22.92
2018-06-21T05:17:18.233Z,22.92
2018-06-21T05:18:18.226Z,22.94
2018-06-21T05:19:18.193Z,22.94
2018-06-21T05:20:18.214Z,22.92
2018-06-21T05:21:18.162Z,22.92
2018-06-21T05:22:18.667Z,22.96
2018-06-21T05:23:18.121Z,22.94
2018-06-21T05:24:18.092Z,22.88
2018-06-21T05:25:18.258Z,22.94
2018-06-21T05:26:18.054Z,22.82
2018-06-21T05:27:18.669Z,22.94
2018-06-21T05:28:18.013Z,22.89
2018-06-21T05:29:18.000Z,22.88
2018-06-21T05:30:18.234Z,22.94
2018-06-21T05:31:17.975Z,22.89
2018-06-21T05:32:17.936Z,22.94
2018-06-21T05:33:18.672Z,22.89
2018-06-21T05:34:17.898Z,23.01
2018-06-21T05:35:17.921Z,23.00
2018-06-21T05:36:17.899Z,22.99
2018-06-21T05:37:17.841Z,23.01
2018-06-21T05:38:18.679Z,23.03
2018-06-21T05:39:17.846Z,22.96
2018-06-21T05:40:17.780Z,23.06
2018-06-21T05:41:17.813Z,23.03
2018-06-21T05:42:18.676Z,23.03
2018-06-21T05:43:17.723Z,23.03
2018-06-21T05:44:17.712Z,23.06
2018-06-21T05:45:18.676Z,23.06
2018-06-21T05:46:17.720Z,23.26
2018-06-21T05:47:17.646Z,23.24
2018-06-21T05:48:18.178Z,23.28
2018-06-21T05:49:17.603Z,23.26
2018-06-21T05:50:18.199Z,23.44
2018-06-21T05:51:17.605Z,23.37
2018-06-21T05:52:17.579Z,23.40
2018-06-21T05:53:18.178Z,23.37
2018-06-21T05:54:17.546Z,23.37
2018-06-21T05:55:17.482Z,23.35
2018-06-21T05:56:17.468Z,23.40
2018-06-21T05:57:18.187Z,23.25
2018-06-21T05:58:17.427Z,23.28
2018-06-21T05:59:17.758Z,23.28
2018-06-21T06:00:17.388Z,23.35
2018-06-21T06:01:17.367Z,23.44
2018-06-21T06:02:18.179Z,23.67
2018-06-21T06:03:17.326Z,23.78
2018-06-21T06:04:17.742Z,23.79
2018-06-21T06:05:17.286Z,23.89
2018-06-21T06:06:18.187Z,23.81
2018-06-21T06:07:17.249Z,23.81
2018-06-21T06:08:18.203Z,23.94
2018-06-21T06:09:17.256Z,23.92
2018-06-21T06:10:17.189Z,24.03
2018-06-21T06:11:17.686Z,24.02
2018-06-21T06:12:17.157Z,24.12
2018-06-21T06:13:17.236Z,24.18
2018-06-21T06:14:17.140Z,24.32
2018-06-21T06:15:17.690Z,24.37
2018-06-21T06:16:17.129Z,24.52
2018-06-21T06:17:17.057Z,24.48
2018-06-21T06:18:17.036Z,24.45
2018-06-21T06:19:17.684Z,24.63
2018-06-21T06:20:17.018Z,24.67
2018-06-21T06:21:17.245Z,24.83
2018-06-21T06:22:16.960Z,25.00
2018-06-21T06:23:17.253Z,25.15
2018-06-21T06:24:16.926Z,25.09
2018-06-21T06:25:17.692Z,25.08
2018-06-21T06:26:16.892Z,25.14
2018-06-21T06:27:16.877Z,25.15
2018-06-21T06:28:17.245Z,25.08
2018-06-21T06:29:16.829Z,25.14
2018-06-21T06:30:17.693Z,25.20
2018-06-21T06:31:16.791Z,25.32
2018-06-21T06:32:16.834Z,25.39
2018-06-21T06:33:17.239Z,25.37
2018-06-21T06:34:16.749Z,25.41
2018-06-21T06:35:17.690Z,25.38
2018-06-21T06:36:16.703Z,25.41
2018-06-21T06:37:17.190Z,25.44
2018-06-21T06:38:16.708Z,25.44
2018-06-21T06:39:17.191Z,25.48
2018-06-21T06:40:16.732Z,25.59
2018-06-21T06:41:17.196Z,25.44
2018-06-21T06:42:16.595Z,25.45
2018-06-21T06:43:16.747Z,25.56
2018-06-21T06:44:16.556Z,25.44
2018-06-21T06:45:16.575Z,25.54
2018-06-21T06:46:16.550Z,25.62
2018-06-21T06:47:17.193Z,25.69
2018-06-21T06:48:16.482Z,25.66
2018-06-21T06:49:16.761Z,25.66
2018-06-21T06:50:16.487Z,25.66
2018-06-21T06:51:17.195Z,25.70
2018-06-21T06:52:16.407Z,25.69
2018-06-21T06:53:17.195Z,25.79
2018-06-21T06:54:16.450Z,25.66
2018-06-21T06:55:17.197Z,25.84
2018-06-21T06:56:16.348Z,25.93
2018-06-21T06:57:17.210Z,25.94
2018-06-21T06:58:16.304Z,26.07
2018-06-21T06:59:16.753Z,26.22
2018-06-21T07:00:16.263Z,26.27
2018-06-21T07:01:16.251Z,26.42
2018-06-21T07:02:17.206Z,26.44
2018-06-21T07:03:16.210Z,26.63
2018-06-21T07:04:16.251Z,26.64
2018-06-21T07:05:16.224Z,26.67
2018-06-21T07:06:16.700Z,26.75
2018-06-21T07:07:16.141Z,26.81
2018-06-21T07:08:16.743Z,26.72
2018-06-21T07:09:16.104Z,26.61
2018-06-21T07:10:16.257Z,26.61
2018-06-21T07:11:16.070Z,26.57
2018-06-21T07:12:16.722Z,26.47
2018-06-21T07:13:16.038Z,26.39
2018-06-21T07:14:16.108Z,26.39
2018-06-21T07:15:16.253Z,26.34
2018-06-21T07:16:16.039Z,26.38
2018-06-21T07:17:15.969Z,26.45
2018-06-21T07:18:15.946Z,26.50
2018-06-21T07:19:15.931Z,26.42
2018-06-21T07:20:16.705Z,26.31
2018-06-21T07:21:15.959Z,26.24
2018-06-21T07:22:16.730Z,26.15
2018-06-21T07:23:15.858Z,26.12
2018-06-21T07:24:16.705Z,26.17
2018-06-21T07:25:15.828Z,26.35
2018-06-21T07:26:16.276Z,26.42
2018-06-21T07:27:15.794Z,26.52
2018-06-21T07:28:15.775Z,26.81
2018-06-21T07:29:16.719Z,26.79
2018-06-21T07:30:15.737Z,26.84
2018-06-21T07:31:15.761Z,26.76
2018-06-21T07:32:15.749Z,26.75
2018-06-21T07:33:16.213Z,26.96
2018-06-21T07:34:15.668Z,26.96
2018-06-21T07:35:15.661Z,27.04
2018-06-21T07:36:15.633Z,27.08
2018-06-21T07:37:15.777Z,27.00
2018-06-21T07:38:15.601Z,27.12
2018-06-21T07:39:16.221Z,27.12
2018-06-21T07:40:15.566Z,27.21
2018-06-21T07:41:16.214Z,26.96
2018-06-21T07:42:15.577Z,26.97
2018-06-21T07:43:16.212Z,27.12
2018-06-21T07:44:15.497Z,27.19
2018-06-21T07:45:16.217Z,27.33
2018-06-21T07:46:15.466Z,27.43
2018-06-21T07:47:15.498Z,27.38
2018-06-21T07:48:15.439Z,27.42
2018-06-21T07:49:15.413Z,27.52
2018-06-21T07:50:15.399Z,27.51
2018-06-21T07:51:15.422Z,27.48
2018-06-21T07:52:16.216Z,27.27
2018-06-21T07:53:15.347Z,27.18
2018-06-21T07:54:15.376Z,27.19
2018-06-21T07:55:16.218Z,27.36
2018-06-21T07:56:15.299Z,27.51
2018-06-21T07:57:15.770Z,27.52
2018-06-21T07:58:15.265Z,27.48
2018-06-21T07:59:15.254Z,27.53
2018-06-21T08:00:15.235Z,27.57
2018-06-21T08:01:15.217Z,27.55
2018-06-21T08:02:15.279Z,27.46
2018-06-21T08:03:15.187Z,27.52
2018-06-21T08:04:15.277Z,27.80
2018-06-21T08:05:15.156Z,27.96
2018-06-21T08:06:15.140Z,28.03
2018-06-21T08:07:15.165Z,28.05
2018-06-21T08:08:15.720Z,28.18
2018-06-21T08:09:15.087Z,28.17
2018-06-21T08:10:15.073Z,28.02
2018-06-21T08:11:15.063Z,28.14
2018-06-21T08:12:15.078Z,28.06
2018-06-21T08:13:15.022Z,28.21
2018-06-21T08:14:15.722Z,28.20
2018-06-21T08:15:14.995Z,28.14
2018-06-21T08:16:14.978Z,28.01
2018-06-21T08:17:15.307Z,27.99
2018-06-21T08:18:14.946Z,27.93
2018-06-21T08:19:15.278Z,27.83
2018-06-21T08:20:14.986Z,27.81
2018-06-21T08:21:15.728Z,27.81
2018-06-21T08:22:14.952Z,27.86
2018-06-21T08:23:14.907Z,27.80
2018-06-21T08:24:15.730Z,27.68
2018-06-21T08:25:14.835Z,27.61
2018-06-21T08:26:15.726Z,27.65
2018-06-21T08:27:14.845Z,27.64
2018-06-21T08:28:14.782Z,27.61
2018-06-21T08:29:15.728Z,27.72
2018-06-21T08:30:14.757Z,27.55
2018-06-21T08:31:14.736Z,27.57
2018-06-21T08:32:14.782Z,27.65
2018-06-21T08:33:15.234Z,27.72
2018-06-21T08:34:14.691Z,27.76
2018-06-21T08:35:15.231Z,27.83
2018-06-21T08:36:14.652Z,27.71
2018-06-21T08:37:14.679Z,27.68
2018-06-21T08:38:14.780Z,27.68
2018-06-21T08:39:14.604Z,27.62
2018-06-21T08:40:15.240Z,27.57
2018-06-21T08:41:14.578Z,27.59
2018-06-21T08:42:15.235Z,27.66
2018-06-21T08:43:14.599Z,27.65
2018-06-21T08:44:14.520Z,27.66
2018-06-21T08:45:15.234Z,27.53
2018-06-21T08:46:14.489Z,27.55
2018-06-21T08:47:14.473Z,27.49
2018-06-21T08:48:14.790Z,27.48
2018-06-21T08:49:14.435Z,27.36
2018-06-21T08:50:14.429Z,27.27
2018-06-21T08:51:15.252Z,27.27
2018-06-21T08:52:14.430Z,27.23
2018-06-21T08:53:14.371Z,27.24
2018-06-21T08:54:14.790Z,27.12
2018-06-21T08:55:14.335Z,27.34
2018-06-21T08:56:15.237Z,27.28
2018-06-21T08:57:14.409Z,27.31
2018-06-21T08:58:14.289Z,27.34
2018-06-21T08:59:14.266Z,27.45
2018-06-21T09:00:14.249Z,27.46
2018-06-21T09:01:16.739Z,27.51
2018-06-21T09:02:14.260Z,27.45
2018-06-21T09:03:14.739Z,27.49
2018-06-21T09:04:14.184Z,27.48
2018-06-21T09:05:14.743Z,27.46
2018-06-21T09:06:14.204Z,27.27
2018-06-21T09:07:14.133Z,27.16
2018-06-21T09:08:14.114Z,27.12
2018-06-21T09:09:14.099Z,27.12
2018-06-21T09:10:14.742Z,27.05
2018-06-21T09:11:14.107Z,26.96
2018-06-21T09:12:14.044Z,26.94
2018-06-21T09:13:14.027Z,26.97
2018-06-21T09:14:14.015Z,26.96
2018-06-21T09:15:14.031Z,26.99
2018-06-21T09:16:14.033Z,27.05
2018-06-21T09:17:13.962Z,27.09
2018-06-21T09:18:13.992Z,27.24
2018-06-21T09:19:13.924Z,27.30
2018-06-21T09:20:13.965Z,27.42
2018-06-21T09:21:13.939Z,27.46
2018-06-21T09:22:13.872Z,27.55
2018-06-21T09:23:13.853Z,27.53
2018-06-21T09:24:13.837Z,27.64
2018-06-21T09:25:13.862Z,27.75
2018-06-21T09:26:13.800Z,27.76
2018-06-21T09:27:13.791Z,27.86
2018-06-21T09:28:13.804Z,27.99
2018-06-21T09:29:13.753Z,27.93
2018-06-21T09:30:13.779Z,27.94
2018-06-21T09:31:13.712Z,27.93
2018-06-21T09:32:13.697Z,27.91
2018-06-21T09:33:13.742Z,28.06
2018-06-21T09:34:13.703Z,28.14
2018-06-21T09:35:13.687Z,28.24
2018-06-21T09:36:13.628Z,28.23
2018-06-21T09:37:13.616Z,28.39
2018-06-21T09:38:13.596Z,28.38
2018-06-21T09:39:13.625Z,28.45
2018-06-21T09:40:13.561Z,28.48
2018-06-21T09:41:13.600Z,28.49
2018-06-21T09:42:13.529Z,28.41
2018-06-21T09:43:13.511Z,28.55
2018-06-21T09:44:13.507Z,28.61
2018-06-21T09:45:13.479Z,28.67
2018-06-21T09:46:13.501Z,28.78
2018-06-21T09:47:13.491Z,28.86
2018-06-21T09:48:13.437Z,28.85
2018-06-21T09:49:13.412Z,28.86
2018-06-21T09:50:13.399Z,28.88
2018-06-21T09:51:13.378Z,28.60
2018-06-21T09:52:13.411Z,28.68
2018-06-21T09:53:13.351Z,28.65
2018-06-21T09:54:13.332Z,28.83
2018-06-21T09:55:13.314Z,28.90
2018-06-21T09:56:13.302Z,29.06
2018-06-21T09:57:13.327Z,29.11
2018-06-21T09:58:13.268Z,29.13
2018-06-21T09:59:13.251Z,28.95
2018-06-21T10:00:13.235Z,29.01
2018-06-21T10:01:13.221Z,28.86
2018-06-21T10:02:13.242Z,28.88
2018-06-21T10:03:13.189Z,28.85
2018-06-21T10:04:13.221Z,28.46
2018-06-21T10:05:13.157Z,28.36
2018-06-21T10:06:13.141Z,28.35
2018-06-21T10:07:13.199Z,28.35
2018-06-21T10:08:13.122Z,28.36
2018-06-21T10:09:13.136Z,28.35
2018-06-21T10:10:13.119Z,28.18
2018-06-21T10:11:13.061Z,28.23
2018-06-21T10:12:13.045Z,28.28
2018-06-21T10:13:13.029Z,28.12
2018-06-21T10:14:13.068Z,28.12
2018-06-21T10:15:13.008Z,27.90
2018-06-21T10:16:12.983Z,27.83
2018-06-21T10:17:12.966Z,27.64
2018-06-21T10:18:13.047Z,27.42
2018-06-21T10:19:12.994Z,27.31
2018-06-21T10:20:12.922Z,27.08
2018-06-21T10:21:12.897Z,26.68
2018-06-21T10:22:12.886Z,26.04
2018-06-21T10:23:12.862Z,25.41
2018-06-21T10:24:13.315Z,24.83
2018-06-21T10:25:12.871Z,24.33
2018-06-21T10:26:12.870Z,23.90
2018-06-21T10:27:12.791Z,23.29
2018-06-21T10:28:12.779Z,22.91
2018-06-21T10:29:13.269Z,22.54
2018-06-21T10:30:12.755Z,21.94
2018-06-21T10:31:12.755Z,21.77
2018-06-21T10:32:12.703Z,21.53
2018-06-21T10:33:12.676Z,21.48
2018-06-21T10:34:12.657Z,21.37
2018-06-21T10:35:12.635Z,21.09
2018-06-21T10:36:12.661Z,20.49
2018-06-21T10:37:12.640Z,19.87
2018-06-21T10:38:12.578Z,19.38
2018-06-21T10:39:12.556Z,18.93
2018-06-21T10:40:12.542Z,18.56
2018-06-21T10:41:12.567Z,17.99
2018-06-21T10:42:12.492Z,17.66
2018-06-21T10:43:12.466Z,17.50
2018-06-21T10:44:12.455Z,17.40
2018-06-21T10:45:12.437Z,17.27
2018-06-21T10:46:12.455Z,17.15
2018-06-21T10:47:12.373Z,17.21
2018-06-21T10:48:12.349Z,17.09
2018-06-21T10:49:12.393Z,17.02
2018-06-21T10:50:12.305Z,17.00
2018-06-21T10:51:12.323Z,17.05
2018-06-21T10:52:12.253Z,17.15
2018-06-21T10:53:12.232Z,17.24
2018-06-21T10:54:12.205Z,17.27
2018-06-21T10:55:12.184Z,17.40
2018-06-21T10:56:12.204Z,17.46
2018-06-21T10:57:12.313Z,17.58
2018-06-21T10:58:12.106Z,17.68
2018-06-21T10:59:12.088Z,17.69
2018-06-21T11:00:12.087Z,17.73
2018-06-21T11:01:12.039Z,17.77
2018-06-21T11:02:12.091Z,17.81
2018-06-21T11:03:11.996Z,17.71
2018-06-21T11:04:11.974Z,17.63
2018-06-21T11:05:11.936Z,17.62
2018-06-21T11:06:11.911Z,17.58
2018-06-21T11:07:11.964Z,17.68
2018-06-21T11:08:11.867Z,17.69
2018-06-21T11:09:11.861Z,17.66
2018-06-21T11:10:11.817Z,17.77
2018-06-21T11:11:11.798Z,17.80
2018-06-21T11:12:11.804Z,17.87
2018-06-21T11:13:11.750Z,17.90
2018-06-21T11:14:11.759Z,17.80
2018-06-21T11:15:11.697Z,17.73
2018-06-21T11:16:11.715Z,17.71
2018-06-21T11:17:11.647Z,17.65
2018-06-21T11:18:11.668Z,17.66
2018-06-21T11:19:11.598Z,17.60
2018-06-21T11:20:11.582Z,17.49
2018-06-21T11:21:11.597Z,17.46
2018-06-21T11:22:11.523Z,17.38
2018-06-21T11:23:11.607Z,17.38
2018-06-21T11:24:11.475Z,17.28
2018-06-21T11:25:11.468Z,17.27
2018-06-21T11:26:11.424Z,17.25
2018-06-21T11:27:11.402Z,17.20
2018-06-21T11:28:11.466Z,17.27
2018-06-21T11:29:11.426Z,17.27
2018-06-21T11:30:11.330Z,17.28
2018-06-21T11:31:11.308Z,17.35
2018-06-21T11:32:11.278Z,17.18
2018-06-21T11:33:11.254Z,17.15
2018-06-21T11:34:11.269Z,17.24
2018-06-21T11:35:11.788Z,17.12
2018-06-21T11:36:11.181Z,17.05
2018-06-21T11:37:11.156Z,17.03
2018-06-21T11:38:11.235Z,17.05
2018-06-21T11:39:11.105Z,16.97
2018-06-21T11:40:11.087Z,16.90
2018-06-21T11:41:11.333Z,16.91
2018-06-21T11:42:11.031Z,16.88
2018-06-21T11:43:11.052Z,16.72
2018-06-21T11:44:11.019Z,16.62
2018-06-21T11:45:10.962Z,16.66
2018-06-21T11:46:11.349Z,16.55
2018-06-21T11:47:10.908Z,16.42
2018-06-21T11:48:10.883Z,16.29
2018-06-21T11:49:10.907Z,16.26
2018-06-21T11:50:11.698Z,16.21
2018-06-21T11:51:11.795Z,16.00
2018-06-21T11:52:10.820Z,15.89
2018-06-21T11:53:10.756Z,15.65
2018-06-21T11:54:10.780Z,15.34
2018-06-21T11:55:10.703Z,15.25
2018-06-21T11:56:10.724Z,15.08
2018-06-21T11:57:10.705Z,14.97
2018-06-21T11:58:10.626Z,14.87
2018-06-21T11:59:10.598Z,14.61
2018-06-21T12:00:10.582Z,14.48
2018-06-21T12:01:10.613Z,14.44
2018-06-21T12:02:10.575Z,14.33
2018-06-21T12:03:10.497Z,14.33
2018-06-21T12:04:10.470Z,14.20
2018-06-21T12:05:10.444Z,14.21
2018-06-21T12:06:10.420Z,14.21
2018-06-21T12:07:10.442Z,14.20
2018-06-21T12:08:10.362Z,14.11
2018-06-21T12:09:10.342Z,14.20
2018-06-21T12:10:10.310Z,14.15
2018-06-21T12:11:10.288Z,14.20
2018-06-21T12:12:10.300Z,14.12
2018-06-21T12:13:10.229Z,14.16
2018-06-21T12:14:10.280Z,14.02
2018-06-21T12:15:10.173Z,14.11
2018-06-21T12:16:10.149Z,14.13
2018-06-21T12:17:10.136Z,14.16
2018-06-21T12:18:10.101Z,14.13
2018-06-21T12:19:10.111Z,14.20
2018-06-21T12:20:10.039Z,14.27
2018-06-21T12:21:10.790Z,14.31
2018-06-21T12:22:09.987Z,14.33
2018-06-21T12:23:09.960Z,14.41
2018-06-21T12:24:09.976Z,14.45
2018-06-21T12:25:10.798Z,14.44
2018-06-21T12:26:09.933Z,14.44
2018-06-21T12:27:09.855Z,14.41
2018-06-21T12:28:09.831Z,14.48
2018-06-21T12:29:09.846Z,14.49
2018-06-21T12:30:09.775Z,14.52
2018-06-21T12:31:09.746Z,14.57
2018-06-21T12:32:09.721Z,14.56
2018-06-21T12:33:09.692Z,14.57
2018-06-21T12:34:09.713Z,14.67
2018-06-21T12:35:09.640Z,14.63
2018-06-21T12:36:09.614Z,14.64
2018-06-21T12:37:09.590Z,14.95
2018-06-21T12:38:10.338Z,14.94
2018-06-21T12:39:09.576Z,14.98
2018-06-21T12:40:09.510Z,15.04
2018-06-21T12:41:10.769Z,15.19
2018-06-21T12:42:09.637Z,15.22
2018-06-21T12:43:10.473Z,15.35
2018-06-21T12:44:09.450Z,15.33
2018-06-21T12:45:11.719Z,15.35
2018-06-21T12:46:09.466Z,15.34
2018-06-21T12:47:10.703Z,15.49
2018-06-21T12:48:12.479Z,15.51
2018-06-21T12:49:09.398Z,15.60
2018-06-21T12:50:09.320Z,15.80
2018-06-21T12:51:09.278Z,15.99
2018-06-21T12:52:09.246Z,16.06